METAR UND TAF INFORMATION
URSS 161130Z 13003MPS 040V200 9999 -SHRA OVC060CB 19/17 Q1011 WS ALL RWY R02/250360 R06/250360 NOSIG RMK R06/11004MPS QFE756

 FLUGHAFENKARTE

 RUNWAY INFORMATION
Runway 02 Runway length 7218 ft Runway width 161 ft
Runway elevation 52 ft Runway displaced threshold 0 ft Runway heading 29
Runway 20 Runway length 7218 ft Runway width 161 ft
Runway elevation 89 ft Runway displaced threshold 0 ft Runway heading 209
Runway 06 Runway length 9482 ft Runway width 164 ft
Runway elevation 36 ft Runway displaced threshold 262 ft Runway heading 65
Runway 24 Runway length 9482 ft Runway width 164 ft
Runway elevation 85 ft Runway displaced threshold 0 ft Runway heading 245

 AIRPORT FREQUENCIES
Type APP Name 06/24 Frequency 121.2 MHZ
Type APP Name 02/20 Frequency 124.6 MHZ
Type ATIS Name ATIS Frequency 126.2 MHZ
Type HEL Name AREA Frequency 118.5 MHZ
Type PMSV Name VOLMET Frequency 129.375 MHZ
Type TWR Name TWR Frequency 118.3 MHZ
Type TWR Name TAXIING Frequency 119 MHZ
Type TWR Name KRUG Frequency 119.7 MHZ

 AIRPORT NEAR NAVIGATION AIDS
Type NDB Name Sochi Frequency 365 KHZ
Type VOR-DME Name Sochi Frequency 112700 KHZ
Type NDB Name Sochi Frequency 761 KHZ